createdAt,value
2024-02-24T00:02:47.263Z,82.22
2024-02-24T00:07:54.890Z,82.09
2024-02-24T00:12:58.505Z,82.17
2024-02-24T00:18:22.760Z,82.28
2024-02-24T00:23:26.773Z,82.31
2024-02-24T00:28:33.254Z,82.42
2024-02-24T00:33:57.034Z,82.49
2024-02-24T00:39:00.731Z,82.43
2024-02-24T00:44:05.104Z,82.27
2024-02-24T00:49:08.747Z,82.66
2024-02-24T00:54:19.797Z,82.72
2024-02-24T00:59:43.353Z,82.49
2024-02-24T01:05:47.313Z,82.75
2024-02-24T01:11:07.002Z,83.00
2024-02-24T01:16:10.670Z,83.22
2024-02-24T01:21:17.889Z,83.40
2024-02-24T01:26:21.473Z,83.90
2024-02-24T01:31:35.726Z,83.43
2024-02-24T01:36:39.263Z,83.67
2024-02-24T01:41:45.650Z,83.74
2024-02-24T01:46:50.116Z,84.00
2024-02-24T01:51:53.689Z,83.91
2024-02-24T01:56:57.867Z,84.29
2024-02-24T02:02:23.369Z,84.70
2024-02-24T02:07:28.304Z,84.32
2024-02-24T02:12:35.869Z,84.71
2024-02-24T02:18:39.553Z,84.73
2024-02-24T02:23:52.206Z,85.60
2024-02-24T02:29:39.248Z,85.56
2024-02-24T02:35:06.197Z,86.18
2024-02-24T02:40:33.304Z,87.44
2024-02-24T02:46:02.576Z,87.47
2024-02-24T02:51:08.977Z,88.07
2024-02-24T02:56:18.196Z,87.80
2024-02-24T03:01:33.901Z,88.29
2024-02-24T03:07:20.971Z,89.45
2024-02-24T03:12:24.595Z,89.83
2024-02-24T03:17:28.359Z,89.41
2024-02-24T03:22:34.393Z,89.49
2024-02-24T03:27:49.717Z,89.01
2024-02-24T03:33:05.571Z,89.16
2024-02-24T03:38:29.268Z,89.55
2024-02-24T03:43:53.343Z,90.24
2024-02-24T03:49:15.554Z,89.54
2024-02-24T03:54:22.683Z,89.69
2024-02-24T03:59:28.753Z,90.24
2024-02-24T04:04:53.481Z,90.68
2024-02-24T04:10:20.452Z,90.38
2024-02-24T04:15:29.111Z,90.65
2024-02-24T04:20:35.005Z,91.01
2024-02-24T04:26:04.394Z,90.65
2024-02-24T04:31:39.951Z,91.06
2024-02-24T04:36:59.783Z,91.49
2024-02-24T04:42:08.961Z,92.31
2024-02-24T04:47:12.615Z,91.83
2024-02-24T04:52:16.350Z,92.84
2024-02-24T04:57:23.042Z,92.84
2024-02-24T05:02:26.814Z,91.98
2024-02-24T05:07:37.705Z,92.41
2024-02-24T05:12:49.471Z,93.19
2024-02-24T05:17:53.203Z,92.82
2024-02-24T05:22:56.892Z,93.61
2024-02-24T05:28:00.563Z,93.92
2024-02-24T05:33:04.467Z,94.95
2024-02-24T05:38:08.190Z,94.68
2024-02-24T05:43:11.780Z,95.01
2024-02-24T05:48:15.615Z,94.77
2024-02-24T05:53:28.210Z,94.45
2024-02-24T05:58:31.886Z,95.01
2024-02-24T06:03:36.713Z,95.02
2024-02-24T06:08:40.564Z,94.40
2024-02-24T06:13:44.101Z,95.05
2024-02-24T06:18:50.416Z,95.70
2024-02-24T06:24:24.087Z,95.78
2024-02-24T06:29:27.744Z,96.21
2024-02-24T06:34:31.267Z,96.37
2024-02-24T06:39:38.076Z,95.79
2024-02-24T06:44:43.146Z,96.78
2024-02-24T06:49:46.864Z,96.80
2024-02-24T06:55:40.861Z,96.98
2024-02-24T07:00:44.591Z,97.06
2024-02-24T07:05:51.469Z,96.78
2024-02-24T07:11:06.470Z,96.06
2024-02-24T07:16:35.316Z,95.83
2024-02-24T07:21:43.433Z,95.66
2024-02-24T07:26:56.251Z,95.71
2024-02-24T07:31:59.946Z,95.58
2024-02-24T07:37:03.628Z,95.61
2024-02-24T07:42:10.690Z,95.64
2024-02-24T07:47:16.260Z,95.80
2024-02-24T07:52:20.053Z,95.89
2024-02-24T07:57:23.915Z,95.99
2024-02-24T08:02:34.949Z,96.05
2024-02-24T08:07:41.806Z,96.17
2024-02-24T08:12:45.906Z,96.16
2024-02-24T08:17:58.762Z,96.00
2024-02-24T08:23:02.360Z,95.93
2024-02-24T08:28:09.257Z,95.65
2024-02-24T08:33:12.922Z,95.87
2024-02-24T08:38:17.852Z,95.90
2024-02-24T08:43:23.520Z,95.98
2024-02-24T08:48:28.408Z,95.78
2024-02-24T08:53:32.153Z,95.56
2024-02-24T08:58:36.629Z,95.67
2024-02-24T09:03:49.437Z,95.42
2024-02-24T09:08:53.276Z,95.22
2024-02-24T09:13:59.871Z,95.37
2024-02-24T09:19:22.636Z,95.03
2024-02-24T09:24:29.293Z,95.11
2024-02-24T09:29:42.200Z,95.54
2024-02-24T09:34:46.291Z,95.34
2024-02-24T09:39:49.904Z,95.51
2024-02-24T09:44:58.502Z,95.11
2024-02-24T09:50:05.845Z,94.99
2024-02-24T09:55:10.212Z,94.84
2024-02-24T10:00:14.074Z,94.60
2024-02-24T10:05:18.060Z,94.01
2024-02-24T10:10:25.073Z,93.50
2024-02-24T10:15:28.693Z,89.34
2024-02-24T10:20:32.457Z,87.37
2024-02-24T10:25:36.229Z,88.46
2024-02-24T10:30:49.162Z,89.40
2024-02-24T10:35:56.164Z,89.37
2024-02-24T10:41:01.705Z,88.67
2024-02-24T10:46:05.579Z,88.41
2024-02-24T10:51:23.972Z,87.44
2024-02-24T10:56:28.771Z,86.32
2024-02-24T11:01:52.595Z,86.53
2024-02-24T11:06:57.851Z,85.90
2024-02-24T11:12:32.538Z,86.00
2024-02-24T11:18:07.810Z,87.52
2024-02-24T11:23:57.167Z,88.77
2024-02-24T11:29:09.587Z,90.08
2024-02-24T11:34:57.429Z,90.66
2024-02-24T11:40:50.618Z,90.81
2024-02-24T11:46:03.675Z,90.78
2024-02-24T11:52:17.738Z,91.32
2024-02-24T11:58:20.982Z,91.26
2024-02-24T12:03:25.444Z,91.18
2024-02-24T12:08:49.832Z,90.92
2024-02-24T12:13:58.994Z,90.48
2024-02-24T12:19:10.583Z,90.41
2024-02-24T12:24:26.863Z,90.20
2024-02-24T12:29:31.436Z,90.14
2024-02-24T12:35:15.268Z,90.48
2024-02-24T12:40:45.549Z,89.76
2024-02-24T12:45:51.055Z,89.60
2024-02-24T12:51:04.031Z,89.22
2024-02-24T14:17:56.402Z,80.32
2024-02-24T14:23:00.873Z,80.07
2024-02-24T14:28:10.321Z,80.87
2024-02-24T14:33:19.651Z,81.40
2024-02-24T14:38:23.381Z,80.66
2024-02-24T14:43:28.621Z,80.76
2024-02-24T14:48:36.244Z,81.22
2024-02-24T14:54:01.894Z,81.00
2024-02-24T14:59:06.375Z,81.49
2024-02-24T15:04:30.759Z,81.81
2024-02-24T15:09:34.624Z,82.03
2024-02-24T15:14:38.519Z,82.16
2024-02-24T15:19:46.540Z,82.11
2024-02-24T15:24:50.367Z,82.34
2024-02-24T15:30:01.723Z,82.31
2024-02-24T15:35:06.040Z,82.59
2024-02-24T15:40:14.657Z,82.71
2024-02-24T15:45:19.542Z,82.79
2024-02-24T15:50:23.270Z,82.95
2024-02-24T15:55:26.775Z,83.04
2024-02-24T16:00:30.768Z,82.99
2024-02-24T16:06:15.180Z,82.93
2024-02-24T16:11:22.065Z,82.90
2024-02-24T16:17:06.192Z,83.03
2024-02-24T16:22:29.938Z,83.03
2024-02-24T16:27:52.635Z,83.06
2024-02-24T16:32:56.530Z,83.19
2024-02-24T16:38:02.980Z,83.13
2024-02-24T16:43:13.396Z,83.21
2024-02-24T16:49:07.456Z,83.14
2024-02-24T16:54:18.894Z,83.12
2024-02-24T16:59:45.492Z,83.18
2024-02-24T17:04:57.221Z,82.94
2024-02-24T17:10:43.468Z,83.01
2024-02-24T17:16:10.443Z,83.29
2024-02-24T17:21:14.478Z,83.19
2024-02-24T17:26:27.575Z,83.45
2024-02-24T17:31:34.329Z,83.66
